createdAt,value
2023-02-22T00:02:27.144Z,9.80
2023-02-22T00:04:55.948Z,9.30
2023-02-22T00:07:26.581Z,9.00
2023-02-22T00:09:57.211Z,10.40
2023-02-22T00:12:27.973Z,9.80
2023-02-22T00:14:55.995Z,10.80
2023-02-22T00:17:24.357Z,10.50
2023-02-22T00:19:52.296Z,11.07
2023-02-22T00:22:20.616Z,9.57
2023-02-22T00:24:54.662Z,10.50
2023-02-22T00:27:43.739Z,9.80
2023-02-22T00:30:22.184Z,9.50
2023-02-22T00:32:53.412Z,9.90
2023-02-22T00:35:23.216Z,9.70
2023-02-22T00:37:53.257Z,10.30
2023-02-22T00:40:25.526Z,9.77
2023-02-22T00:42:58.753Z,9.30
2023-02-22T00:45:29.237Z,9.60
2023-02-22T00:48:01.031Z,10.10
2023-02-22T00:50:33.939Z,8.90
2023-02-22T00:53:04.776Z,9.37
2023-02-22T00:55:38.050Z,9.83
2023-02-22T00:58:32.118Z,9.30
2023-02-22T01:00:59.774Z,9.27
2023-02-22T01:06:32.301Z,10.23
2023-02-22T01:09:05.766Z,10.87
2023-02-22T01:11:33.486Z,9.70
2023-02-22T01:14:03.135Z,9.67
2023-02-22T01:19:22.840Z,9.20
2023-02-22T01:21:51.115Z,9.70
2023-02-22T01:24:19.560Z,10.80
2023-02-22T01:27:04.941Z,9.73
2023-02-22T01:29:38.153Z,9.83
2023-02-22T01:32:07.257Z,10.30
2023-02-22T01:34:37.202Z,9.70
2023-02-22T01:37:12.020Z,10.13
2023-02-22T01:39:40.025Z,10.00
2023-02-22T01:42:11.955Z,9.93
2023-02-22T01:44:43.138Z,9.77
2023-02-22T01:47:13.308Z,10.33
2023-02-22T01:49:51.477Z,9.37
2023-02-22T01:52:24.826Z,9.40
2023-02-22T01:55:00.594Z,10.33
2023-02-22T01:57:40.238Z,9.37
2023-02-22T02:00:21.354Z,9.90
2023-02-22T02:03:08.190Z,10.17
2023-02-22T02:05:41.483Z,9.57
2023-02-22T02:08:17.841Z,9.40
2023-02-22T02:10:47.590Z,9.43
2023-02-22T02:13:23.643Z,9.77
2023-02-22T02:16:04.387Z,10.27
2023-02-22T02:18:32.791Z,10.37
2023-02-22T02:21:39.906Z,9.00
2023-02-22T02:24:42.688Z,9.37
2023-02-22T02:27:15.217Z,10.30
2023-02-22T02:30:19.262Z,8.60
2023-02-22T02:32:54.882Z,9.07
2023-02-22T02:35:36.529Z,8.90
2023-02-22T02:38:35.476Z,9.57
2023-02-22T02:41:28.081Z,9.63
2023-02-22T02:44:04.944Z,9.00
2023-02-22T02:46:44.467Z,9.30
2023-02-22T02:49:31.953Z,9.70
2023-02-22T02:52:01.929Z,9.40
2023-02-22T02:54:33.988Z,9.37
2023-02-22T02:57:05.562Z,9.90
2023-02-22T02:59:44.846Z,9.83
2023-02-22T03:02:38.580Z,10.37
2023-02-22T03:05:28.876Z,8.33
2023-02-22T03:08:08.184Z,9.60
2023-02-22T03:10:52.899Z,9.60
2023-02-22T03:13:32.848Z,9.80
2023-02-22T03:16:28.232Z,10.30
2023-02-22T03:19:07.384Z,9.30
2023-02-22T03:21:51.584Z,8.30
2023-02-22T03:24:33.016Z,9.40
2023-02-22T03:27:09.537Z,9.77
2023-02-22T03:29:48.127Z,8.73
2023-02-22T03:32:20.169Z,9.07
2023-02-22T03:34:54.738Z,9.20
2023-02-22T03:37:33.943Z,9.17
2023-02-22T03:40:13.849Z,9.43
2023-02-22T03:42:44.520Z,9.13
2023-02-22T03:45:16.346Z,8.67
2023-02-22T03:47:51.307Z,7.77
2023-02-22T03:50:22.592Z,9.50
2023-02-22T03:52:52.126Z,9.43
2023-02-22T03:55:19.882Z,8.60
2023-02-22T03:57:51.748Z,8.40
2023-02-22T04:00:26.728Z,8.60
2023-02-22T04:02:54.776Z,7.90
2023-02-22T04:05:27.558Z,8.40
2023-02-22T04:08:03.389Z,8.33
2023-02-22T04:10:31.659Z,7.30
2023-02-22T04:13:00.969Z,8.50
2023-02-22T04:15:28.731Z,8.90
2023-02-22T04:17:57.029Z,8.10
2023-02-22T04:20:28.559Z,8.63
2023-02-22T04:22:58.542Z,7.90
2023-02-22T04:25:27.073Z,8.67
2023-02-22T04:27:58.051Z,8.20
2023-02-22T04:30:31.603Z,8.00
2023-02-22T04:33:00.445Z,8.33
2023-02-22T04:35:28.801Z,8.60
2023-02-22T04:38:00.644Z,9.37
2023-02-22T04:40:28.499Z,8.00
2023-02-22T04:42:56.632Z,7.67
2023-02-22T04:45:27.604Z,8.10
2023-02-22T04:48:08.664Z,8.27
2023-02-22T04:50:36.590Z,8.63
2023-02-22T04:53:10.526Z,7.77
2023-02-22T04:55:38.395Z,7.93
2023-02-22T04:58:09.166Z,9.10
2023-02-22T05:00:40.865Z,7.60
2023-02-22T05:03:08.829Z,9.33
2023-02-22T05:05:37.591Z,9.10
2023-02-22T05:08:08.820Z,8.70
2023-02-22T05:10:42.077Z,9.57
2023-02-22T05:13:10.680Z,8.77
2023-02-22T05:15:38.619Z,10.60
2023-02-22T05:18:09.099Z,10.00
2023-02-22T05:20:44.704Z,9.13
2023-02-22T05:23:16.636Z,9.43
2023-02-22T05:25:45.237Z,10.00
2023-02-22T05:28:22.403Z,9.70
2023-02-22T05:30:55.109Z,9.37
2023-02-22T05:36:09.353Z,9.90
2023-02-22T05:38:43.842Z,8.53
2023-02-22T05:41:12.509Z,9.63
2023-02-22T05:43:41.422Z,9.20
2023-02-22T05:46:09.643Z,9.67
2023-02-22T05:48:45.432Z,9.00
2023-02-22T05:51:13.437Z,9.00
2023-02-22T05:53:47.317Z,8.33
2023-02-22T05:56:16.888Z,9.70
2023-02-22T05:58:45.259Z,9.67
2023-02-22T06:01:12.807Z,9.60
2023-02-22T06:03:40.353Z,10.03
2023-02-22T06:06:08.376Z,10.07
2023-02-22T06:08:35.964Z,9.43
2023-02-22T06:11:05.337Z,11.10
2023-02-22T06:13:35.437Z,10.67
2023-02-22T06:16:03.125Z,9.93
2023-02-22T06:18:31.334Z,10.23
2023-02-22T06:20:59.377Z,10.10
2023-02-22T06:23:27.547Z,9.33
2023-02-22T06:25:55.419Z,10.10
2023-02-22T06:28:28.559Z,8.27
2023-02-22T06:30:56.540Z,8.80
2023-02-22T06:33:24.087Z,8.13
2023-02-22T06:35:51.658Z,8.87
2023-02-22T06:38:25.796Z,9.13
2023-02-22T06:40:55.156Z,8.13
2023-02-22T06:43:24.890Z,8.03
2023-02-22T06:45:52.755Z,7.37
2023-02-22T06:48:20.602Z,8.40
2023-02-22T06:50:48.362Z,7.80
2023-02-22T06:53:16.606Z,7.73
2023-02-22T06:55:44.295Z,8.70
2023-02-22T06:58:11.937Z,7.00
2023-02-22T07:00:40.932Z,7.37
2023-02-22T07:03:08.532Z,8.57
2023-02-22T07:05:36.391Z,7.93
2023-02-22T07:08:06.221Z,7.60
2023-02-22T07:10:35.756Z,8.50
2023-02-22T07:13:03.642Z,7.60
2023-02-22T07:15:32.761Z,8.07
2023-02-22T07:18:02.609Z,8.53
2023-02-22T07:20:31.738Z,7.67
2023-02-22T07:22:59.603Z,7.30
2023-02-22T07:25:27.462Z,7.70
2023-02-22T07:27:55.079Z,7.87
2023-02-22T07:30:26.312Z,7.23
2023-02-22T07:33:02.189Z,7.20
2023-02-22T07:35:33.534Z,7.23
2023-02-22T07:38:01.140Z,7.23
2023-02-22T07:40:29.600Z,6.83
2023-02-22T07:43:02.728Z,8.50
2023-02-22T07:45:34.644Z,8.10
2023-02-22T07:48:04.327Z,6.70
2023-02-22T07:50:44.627Z,7.10
2023-02-22T07:53:20.394Z,6.80
2023-02-22T07:55:50.796Z,7.00
2023-02-22T07:58:23.457Z,6.50
2023-02-22T08:00:51.296Z,6.63
2023-02-22T08:03:21.040Z,5.93
2023-02-22T08:05:54.015Z,6.53
2023-02-22T08:08:22.105Z,6.73
2023-02-22T08:10:50.379Z,6.43
2023-02-22T08:13:19.115Z,5.90
2023-02-22T08:15:47.554Z,6.07
2023-02-22T08:18:18.298Z,6.63
2023-02-22T08:20:47.790Z,6.40
2023-02-22T08:23:17.592Z,6.27
2023-02-22T08:25:51.133Z,6.67
2023-02-22T08:28:22.867Z,6.90
2023-02-22T08:30:53.899Z,6.70
2023-02-22T08:33:22.026Z,8.67
2023-02-22T08:35:50.452Z,9.10
2023-02-22T08:38:22.564Z,8.40
2023-02-22T08:40:50.903Z,8.43
2023-02-22T08:43:19.611Z,7.63
2023-02-22T08:45:47.718Z,8.20
2023-02-22T08:48:16.046Z,8.50
2023-02-22T08:50:44.286Z,8.40
2023-02-22T08:53:14.910Z,7.50
2023-02-22T08:55:44.994Z,9.17
2023-02-22T08:58:14.270Z,9.30
2023-02-22T09:00:44.559Z,9.10
2023-02-22T09:03:14.142Z,10.10
2023-02-22T09:05:44.031Z,9.87
2023-02-22T09:08:11.865Z,10.40
2023-02-22T09:10:40.634Z,8.77
2023-02-22T09:13:10.043Z,10.03
2023-02-22T09:15:37.687Z,11.73
2023-02-22T09:18:08.372Z,12.20
2023-02-22T09:20:36.820Z,12.40
2023-02-22T09:23:09.726Z,11.53
2023-02-22T09:25:38.681Z,12.10
2023-02-22T09:28:06.595Z,12.23
2023-02-22T09:30:44.990Z,12.30
2023-02-22T09:33:15.200Z,10.83
2023-02-22T09:35:46.284Z,12.33
2023-02-22T09:38:16.142Z,9.70
2023-02-22T09:40:49.344Z,9.13
2023-02-22T09:43:27.680Z,9.87
2023-02-22T09:46:12.038Z,9.10
2023-02-22T09:48:57.999Z,8.87
2023-02-22T09:51:35.683Z,10.63
2023-02-22T09:54:07.947Z,10.70
2023-02-22T09:56:36.343Z,12.03
2023-02-22T09:59:08.719Z,9.67
2023-02-22T10:01:43.762Z,10.87
2023-02-22T10:04:19.397Z,11.10
2023-02-22T10:07:05.914Z,9.70
2023-02-22T10:09:37.566Z,9.43
2023-02-22T10:12:12.922Z,9.30
2023-02-22T10:14:52.071Z,10.50
2023-02-22T10:17:30.806Z,10.43
2023-02-22T10:20:13.389Z,11.00
2023-02-22T10:22:55.162Z,10.00
2023-02-22T10:25:26.739Z,10.73
2023-02-22T10:27:58.672Z,9.30
2023-02-22T10:30:33.355Z,10.07
2023-02-22T10:33:09.652Z,10.50
2023-02-22T10:35:41.071Z,9.10
2023-02-22T10:38:17.420Z,11.13
2023-02-22T10:40:50.410Z,9.80
2023-02-22T10:43:18.111Z,10.60
2023-02-22T10:45:45.752Z,10.40
2023-02-22T10:48:18.397Z,10.97
2023-02-22T10:50:47.456Z,11.10
2023-02-22T10:53:16.617Z,11.80
2023-02-22T10:56:07.585Z,11.67
2023-02-22T10:58:42.543Z,13.00
2023-02-22T11:01:24.680Z,11.10
2023-02-22T11:04:02.502Z,10.30
2023-02-22T11:06:30.895Z,12.53
2023-02-22T11:09:13.602Z,12.30
2023-02-22T11:11:43.715Z,11.90
2023-02-22T11:14:12.130Z,11.90
2023-02-22T11:16:43.451Z,12.80
2023-02-22T11:19:23.945Z,12.23
2023-02-22T11:21:54.179Z,11.60
2023-02-22T11:24:30.419Z,11.03
2023-02-22T11:27:03.220Z,11.67
2023-02-22T11:29:33.753Z,11.10
2023-02-22T11:32:05.086Z,11.80
2023-02-22T11:34:38.397Z,12.60
2023-02-22T11:37:34.534Z,12.93
2023-02-22T11:40:12.221Z,12.43
2023-02-22T11:42:40.071Z,11.97
2023-02-22T11:45:13.851Z,12.00
2023-02-22T11:47:57.372Z,12.90
2023-02-22T11:50:35.009Z,13.50
2023-02-22T11:53:17.360Z,14.37
2023-02-22T11:55:52.770Z,13.30
2023-02-22T11:58:33.186Z,13.90
2023-02-22T12:01:09.248Z,11.57
2023-02-22T12:03:55.269Z,10.67
2023-02-22T12:06:35.580Z,10.83
2023-02-22T12:09:13.946Z,11.40
2023-02-22T12:11:58.155Z,12.40
2023-02-22T12:14:35.441Z,12.10
2023-02-22T12:17:27.052Z,12.53
2023-02-22T12:19:59.749Z,11.63
2023-02-22T12:22:33.357Z,12.40
2023-02-22T12:25:09.919Z,12.20
2023-02-22T12:27:44.647Z,11.03
2023-02-22T12:30:19.064Z,11.57
2023-02-22T12:32:51.651Z,11.40
2023-02-22T12:35:24.355Z,11.80
2023-02-22T12:38:02.244Z,11.17
2023-02-22T12:40:37.383Z,12.47
2023-02-22T12:43:16.515Z,10.53
2023-02-22T12:45:48.180Z,10.87
2023-02-22T12:48:27.301Z,10.90
2023-02-22T12:51:00.770Z,11.23
2023-02-22T12:53:41.964Z,11.37
2023-02-22T12:56:20.142Z,11.83
2023-02-22T12:58:56.906Z,12.93
2023-02-22T13:04:21.750Z,11.00
2023-02-22T13:07:19.756Z,11.63
2023-02-22T13:10:15.069Z,10.90
2023-02-22T13:12:55.714Z,11.67
2023-02-22T13:15:32.471Z,11.20
2023-02-22T13:18:17.659Z,11.50
2023-02-22T13:20:58.257Z,10.53
2023-02-22T13:23:43.587Z,10.17
2023-02-22T13:26:26.981Z,9.30
2023-02-22T13:28:59.788Z,8.93
2023-02-22T13:31:43.727Z,9.80
2023-02-22T13:34:30.979Z,9.80
2023-02-22T13:37:17.581Z,9.30
2023-02-22T13:40:01.146Z,8.70
2023-02-22T13:42:55.298Z,9.07
2023-02-22T13:45:56.049Z,9.33
2023-02-22T13:48:49.747Z,9.40
2023-02-22T13:51:35.411Z,9.30
2023-02-22T13:54:11.170Z,8.70
2023-02-22T13:56:43.654Z,7.47
2023-02-22T13:59:25.592Z,9.10
2023-02-22T14:01:54.842Z,9.00
2023-02-22T14:04:39.049Z,8.30
2023-02-22T14:07:54.886Z,8.20
2023-02-22T14:10:50.038Z,7.70
2023-02-22T14:13:19.539Z,8.20
2023-02-22T14:16:24.138Z,7.70
2023-02-22T14:19:06.398Z,7.57
2023-02-22T14:21:38.058Z,7.40
2023-02-22T14:24:14.916Z,7.93
2023-02-22T14:27:00.080Z,7.50
2023-02-22T14:29:28.073Z,7.50
2023-02-22T14:32:10.483Z,7.20
2023-02-22T14:34:52.724Z,7.73
2023-02-22T14:37:27.096Z,8.00
2023-02-22T14:40:12.746Z,6.93
2023-02-22T14:42:45.132Z,7.00
2023-02-22T14:45:21.931Z,7.20
2023-02-22T14:48:03.194Z,7.90
2023-02-22T14:50:44.019Z,7.47
2023-02-22T14:53:25.788Z,7.43
2023-02-22T14:55:58.643Z,6.50
2023-02-22T14:58:35.434Z,8.00
2023-02-22T15:01:20.080Z,7.80
2023-02-22T15:04:01.964Z,8.03
2023-02-22T15:06:35.293Z,7.77
2023-02-22T15:09:11.684Z,8.03
2023-02-22T15:11:39.410Z,8.47
2023-02-22T15:14:25.687Z,8.50
2023-02-22T15:16:55.916Z,9.80
2023-02-22T15:19:27.852Z,9.10
2023-02-22T15:21:57.119Z,9.30
2023-02-22T15:24:27.735Z,9.67
2023-02-22T15:27:04.427Z,9.63
2023-02-22T15:29:37.105Z,10.20
2023-02-22T15:32:20.124Z,9.77
2023-02-22T15:34:49.094Z,10.90
2023-02-22T15:37:25.353Z,11.07
2023-02-22T15:39:59.139Z,11.40
2023-02-22T15:42:30.391Z,10.93
2023-02-22T15:44:58.587Z,10.20
2023-02-22T15:47:27.926Z,10.93
2023-02-22T15:50:21.177Z,11.03
2023-02-22T15:52:53.284Z,9.80
2023-02-22T15:55:25.761Z,10.57
2023-02-22T15:57:53.847Z,9.80
2023-02-22T16:00:30.675Z,11.33
2023-02-22T16:02:59.051Z,9.60
2023-02-22T16:05:37.987Z,9.73
2023-02-22T16:08:15.586Z,10.33
2023-02-22T16:10:54.192Z,11.07
2023-02-22T16:13:31.573Z,10.93
2023-02-22T16:16:02.138Z,10.13
2023-02-22T16:18:33.682Z,10.73
2023-02-22T16:21:06.499Z,10.20
2023-02-22T16:23:45.304Z,11.07
2023-02-22T16:26:26.464Z,12.10
2023-02-22T16:28:56.148Z,11.40
2023-02-22T16:31:25.752Z,10.43
2023-02-22T16:33:53.962Z,11.17
2023-02-22T16:36:36.860Z,11.60
2023-02-22T16:39:08.075Z,11.97
2023-02-22T16:41:36.163Z,11.50
2023-02-22T16:44:07.596Z,12.67
2023-02-22T16:46:36.615Z,12.30
2023-02-22T16:49:04.983Z,12.17
2023-02-22T16:54:44.461Z,12.70
2023-02-22T16:57:20.380Z,12.47
2023-02-22T16:59:52.067Z,12.80
2023-02-22T17:02:20.557Z,13.00
2023-02-22T17:04:52.610Z,13.40
2023-02-22T17:07:29.804Z,13.07
2023-02-22T17:09:58.261Z,13.80
2023-02-22T17:12:26.681Z,13.30
2023-02-22T17:14:56.770Z,13.97
2023-02-22T17:17:26.524Z,13.37
2023-02-22T17:19:55.137Z,14.90
2023-02-22T17:22:27.998Z,19.63
2023-02-22T17:24:55.682Z,23.20
2023-02-22T17:27:25.123Z,16.30
2023-02-22T17:29:52.887Z,15.13
2023-02-22T17:32:20.711Z,13.80
2023-02-22T17:34:48.347Z,15.93
2023-02-22T17:37:16.024Z,14.80
2023-02-22T17:39:47.746Z,14.43
2023-02-22T17:42:15.496Z,14.60
2023-02-22T17:44:45.179Z,14.13
2023-02-22T17:47:12.984Z,13.97
2023-02-22T17:49:46.182Z,15.60
2023-02-22T17:52:15.602Z,12.87
2023-02-22T17:54:46.471Z,14.37
2023-02-22T17:57:14.112Z,13.07
2023-02-22T17:59:42.207Z,14.93
2023-02-22T18:02:10.491Z,14.13
2023-02-22T18:04:39.557Z,13.57
2023-02-22T18:07:09.279Z,13.93
2023-02-22T18:09:39.423Z,13.80
2023-02-22T18:12:16.151Z,14.30
2023-02-22T18:17:31.435Z,14.30
2023-02-22T18:20:31.102Z,16.33
2023-02-22T18:23:00.320Z,14.80
2023-02-22T18:25:28.677Z,15.77
2023-02-22T18:27:58.048Z,13.93
2023-02-22T18:30:25.884Z,15.10
2023-02-22T18:32:53.891Z,13.23
2023-02-22T18:35:22.207Z,13.47
2023-02-22T18:37:51.746Z,13.70
2023-02-22T18:40:25.044Z,13.93
2023-02-22T18:42:52.804Z,13.60
2023-02-22T18:45:22.849Z,14.30
2023-02-22T18:47:56.585Z,15.20
2023-02-22T18:50:28.846Z,14.10
2023-02-22T18:52:56.681Z,13.27
2023-02-22T18:58:35.015Z,14.40
2023-02-22T19:01:14.096Z,14.67
2023-02-22T19:03:42.829Z,12.83
2023-02-22T19:06:19.047Z,14.10
2023-02-22T19:11:25.490Z,12.40
2023-02-22T19:14:31.810Z,12.87
2023-02-22T19:17:16.991Z,13.60
2023-02-22T19:19:45.098Z,13.70
2023-02-22T19:22:14.993Z,13.00
2023-02-22T19:24:51.530Z,14.70
2023-02-22T19:27:19.472Z,13.50
2023-02-22T19:29:53.903Z,13.80
2023-02-22T19:32:23.847Z,13.17
2023-02-22T19:35:01.985Z,13.00
2023-02-22T19:37:41.213Z,13.90
2023-02-22T19:40:10.918Z,13.90
2023-02-22T19:42:40.937Z,14.70
2023-02-22T19:45:10.342Z,15.50
2023-02-22T19:47:41.199Z,13.93
2023-02-22T19:50:12.078Z,12.67
2023-02-22T19:52:40.020Z,13.00
2023-02-22T19:55:13.233Z,16.50
2023-02-22T19:57:41.213Z,14.70
2023-02-22T20:03:09.376Z,14.33
2023-02-22T20:05:40.612Z,13.50
2023-02-22T20:08:09.610Z,14.17
2023-02-22T20:10:40.605Z,13.73
2023-02-22T20:13:08.361Z,16.50
2023-02-22T20:15:38.121Z,14.67
2023-02-22T20:18:07.151Z,15.00
2023-02-22T20:20:37.813Z,14.63
2023-02-22T20:23:07.090Z,15.07
2023-02-22T20:25:36.523Z,14.70
2023-02-22T20:28:07.895Z,15.33
2023-02-22T20:33:30.133Z,14.87
2023-02-22T20:35:57.971Z,15.17
2023-02-22T20:38:26.481Z,14.40
2023-02-22T20:40:54.848Z,15.10
2023-02-22T20:43:24.079Z,14.43
2023-02-22T20:45:54.653Z,14.10
2023-02-22T20:48:28.675Z,15.33
2023-02-22T20:50:56.581Z,14.10
2023-02-22T20:53:25.498Z,15.27
2023-02-22T20:55:59.122Z,14.70
2023-02-22T20:58:30.350Z,14.83
2023-02-22T21:01:05.230Z,16.00
2023-02-22T21:03:42.686Z,14.23
2023-02-22T21:06:15.426Z,15.60
2023-02-22T21:08:47.237Z,15.37
2023-02-22T21:11:17.996Z,16.00
2023-02-22T21:13:46.228Z,14.70
2023-02-22T21:16:32.222Z,14.70
2023-02-22T21:19:21.055Z,14.30
2023-02-22T21:21:48.946Z,14.80
2023-02-22T21:24:26.342Z,14.40
2023-02-22T21:26:55.755Z,15.47
2023-02-22T21:29:23.894Z,15.00
2023-02-22T21:31:51.804Z,14.07
2023-02-22T21:34:23.245Z,14.20
2023-02-22T21:36:59.659Z,14.40
2023-02-22T21:39:31.182Z,14.20
2023-02-22T21:42:01.935Z,14.40
2023-02-22T21:44:31.382Z,14.83
2023-02-22T21:47:00.219Z,14.73
2023-02-22T21:49:30.178Z,13.70
2023-02-22T21:51:58.302Z,16.60
2023-02-22T21:54:28.482Z,15.30
2023-02-22T21:56:56.260Z,15.97
2023-02-22T21:59:24.402Z,14.83
2023-02-22T22:01:58.498Z,13.67
2023-02-22T22:04:32.444Z,16.10
2023-02-22T22:07:01.483Z,15.97
2023-02-22T22:09:34.905Z,14.63
2023-02-22T22:12:07.517Z,13.60
2023-02-22T22:14:36.722Z,13.77
2023-02-22T22:17:09.595Z,14.70
2023-02-22T22:19:44.341Z,16.07
2023-02-22T22:22:36.658Z,15.13
2023-02-22T22:25:04.829Z,15.10
2023-02-22T22:27:40.647Z,15.23
2023-02-22T22:30:10.797Z,15.40
2023-02-22T22:32:38.515Z,15.67
2023-02-22T22:35:15.914Z,15.03
2023-02-22T22:37:44.529Z,14.77
2023-02-22T22:40:24.380Z,14.87
2023-02-22T22:42:52.127Z,15.60
2023-02-22T22:45:20.361Z,16.50
2023-02-22T22:47:48.595Z,15.07
2023-02-22T22:50:19.587Z,15.67
2023-02-22T22:52:48.892Z,14.57
2023-02-22T22:55:16.735Z,14.53
2023-02-22T22:57:44.334Z,14.80
2023-02-22T23:00:28.328Z,14.60
2023-02-22T23:02:56.214Z,13.77
2023-02-22T23:05:27.966Z,15.60
2023-02-22T23:07:59.270Z,14.70
2023-02-22T23:10:28.484Z,15.80
2023-02-22T23:12:57.091Z,14.77
2023-02-22T23:15:25.756Z,14.93
2023-02-22T23:17:56.053Z,14.17
2023-02-22T23:20:26.475Z,16.77
2023-02-22T23:22:59.177Z,14.27
2023-02-22T23:25:26.805Z,15.97
2023-02-22T23:27:55.156Z,14.47
2023-02-22T23:30:23.874Z,13.93
2023-02-22T23:32:56.748Z,16.00
2023-02-22T23:35:25.002Z,15.50
2023-02-22T23:37:53.923Z,15.93
2023-02-22T23:40:25.954Z,15.57
2023-02-22T23:42:54.843Z,15.23
2023-02-22T23:45:24.662Z,14.50
2023-02-22T23:47:54.977Z,16.07
2023-02-22T23:50:24.558Z,15.73
2023-02-22T23:52:58.430Z,16.73
2023-02-22T23:55:32.661Z,17.17
2023-02-22T23:58:00.493Z,15.40
